createdAt,value
2023-05-22T00:02:14.152Z,100013.09
2023-05-22T00:04:41.644Z,100018.97
2023-05-22T00:07:09.208Z,100028.88
2023-05-22T00:09:36.719Z,100032.16
2023-05-22T00:12:04.246Z,100030.09
2023-05-22T00:14:31.633Z,100025.63
2023-05-22T00:17:00.299Z,100025.66
2023-05-22T00:19:30.626Z,100027.53
2023-05-22T00:21:58.120Z,100021.31
2023-05-22T00:24:25.580Z,100029.47
2023-05-22T00:26:52.975Z,100023.09
2023-05-22T00:29:20.508Z,100027.75
2023-05-22T00:31:48.232Z,100039.59
2023-05-22T00:34:15.696Z,100055.31
2023-05-22T00:36:43.124Z,100069.25
2023-05-22T00:39:10.524Z,100063.25
2023-05-22T00:41:38.661Z,100068.78
2023-05-22T00:44:06.273Z,100092.84
2023-05-22T00:46:34.082Z,100107.97
2023-05-22T00:49:01.512Z,100110.19
2023-05-22T00:51:29.410Z,100125.41
2023-05-22T00:53:57.293Z,100138.56
2023-05-22T00:56:25.077Z,100158.16
2023-05-22T00:58:52.732Z,100172.25
2023-05-22T01:01:20.588Z,100168.66
2023-05-22T01:03:48.377Z,100167.63
2023-05-22T01:06:18.390Z,100175.09
2023-05-22T01:08:45.888Z,100185.47
2023-05-22T01:11:26.661Z,100202.03
2023-05-22T01:14:51.762Z,100220.13
2023-05-22T01:17:38.151Z,100248.47
2023-05-22T01:20:11.206Z,100259.69
2023-05-22T01:22:58.706Z,100261.25
2023-05-22T01:25:49.562Z,100264.84
2023-05-22T01:28:17.008Z,100278.03
2023-05-22T01:31:29.105Z,100267.28
2023-05-22T01:33:58.919Z,100274.47
2023-05-22T01:36:31.863Z,100284.28
2023-05-22T01:39:01.635Z,100289.06
2023-05-22T01:41:30.044Z,100293.44
2023-05-22T01:43:57.489Z,100303.31
2023-05-22T01:46:30.394Z,100322.66
2023-05-22T01:48:58.567Z,100317.34
2023-05-22T01:51:45.196Z,100329.38
2023-05-22T01:54:43.487Z,100346.88
2023-05-22T01:57:37.885Z,100338.13
2023-05-22T02:00:11.008Z,100339.69
2023-05-22T02:02:43.406Z,100332.53
2023-05-22T02:05:12.661Z,100320.09
2023-05-22T02:07:42.203Z,100330.91
2023-05-22T02:10:11.549Z,100338.09
2023-05-22T02:12:39.089Z,100342.56
2023-05-22T02:15:08.732Z,100354.78
2023-05-22T02:17:42.742Z,100361.31
2023-05-22T02:20:15.812Z,100350.84
2023-05-22T02:22:47.607Z,100365.03
2023-05-22T02:25:17.274Z,100369.47
2023-05-22T02:27:46.957Z,100383.53
2023-05-22T02:30:15.479Z,100391.50
2023-05-22T02:32:43.296Z,100387.13
2023-05-22T02:35:11.055Z,100397.81
2023-05-22T02:37:38.690Z,100398.75
2023-05-22T02:40:06.758Z,100398.78
2023-05-22T02:42:34.809Z,100412.00
2023-05-22T02:45:02.808Z,100404.09
2023-05-22T02:47:33.206Z,100419.25
2023-05-22T02:50:00.655Z,100437.81
2023-05-22T02:52:28.548Z,100444.00
2023-05-22T02:54:56.022Z,100445.75
2023-05-22T02:57:23.596Z,100451.97
2023-05-22T02:59:51.341Z,100451.97
2023-05-22T03:02:19.795Z,100444.88
2023-05-22T03:04:47.341Z,100450.19
2023-05-22T03:07:14.989Z,100442.38
2023-05-22T03:09:42.547Z,100456.50
2023-05-22T03:12:10.264Z,100461.00
2023-05-22T03:14:37.770Z,100475.19
2023-05-22T03:17:05.402Z,100483.13
2023-05-22T03:19:32.858Z,100487.56
2023-05-22T03:22:00.345Z,100497.28
2023-05-22T03:24:27.984Z,100498.09
2023-05-22T03:26:55.457Z,100506.97
2023-05-22T03:29:23.026Z,100503.38
2023-05-22T03:31:50.510Z,100495.41
2023-05-22T03:34:17.967Z,100499.84
2023-05-22T03:36:46.128Z,100493.63
2023-05-22T03:39:13.581Z,100501.72
2023-05-22T03:41:41.373Z,100515.00
2023-05-22T03:44:08.791Z,100514.97
2023-05-22T03:46:36.232Z,100515.91
2023-05-22T03:49:03.866Z,100517.69
2023-05-22T03:51:31.842Z,100523.84
2023-05-22T03:53:59.675Z,100523.84
2023-05-22T03:56:27.215Z,100523.88
2023-05-22T03:58:54.682Z,100533.59
2023-05-22T04:01:22.262Z,100538.00
2023-05-22T04:03:49.694Z,100543.34
2023-05-22T04:06:17.710Z,100536.25
2023-05-22T04:08:45.260Z,100541.53
2023-05-22T04:11:15.768Z,100544.19
2023-05-22T04:13:46.067Z,100537.97
2023-05-22T04:16:13.783Z,100529.06
2023-05-22T04:18:41.389Z,100522.84
2023-05-22T04:21:09.903Z,100525.50
2023-05-22T04:23:38.782Z,100516.59
2023-05-22T04:26:08.883Z,100521.94
2023-05-22T04:28:36.417Z,100518.44
2023-05-22T04:31:06.576Z,100526.41
2023-05-22T04:33:38.708Z,100547.59
2023-05-22T04:36:07.161Z,100553.03
2023-05-22T04:38:36.778Z,100570.69
2023-05-22T04:41:04.488Z,100571.53
2023-05-22T04:43:32.495Z,100564.47
2023-05-22T04:46:00.885Z,100554.78
2023-05-22T04:48:28.417Z,100561.91
2023-05-22T04:50:58.870Z,100569.88
2023-05-22T04:53:27.704Z,100579.63
2023-05-22T04:55:55.356Z,100586.75
2023-05-22T04:58:29.589Z,100585.84
2023-05-22T05:00:57.965Z,100598.22
2023-05-22T05:03:25.813Z,100584.00
2023-05-22T05:05:53.344Z,100574.22
2023-05-22T05:08:20.980Z,100571.56
2023-05-22T05:10:48.508Z,100579.50
2023-05-22T05:13:15.974Z,100575.00
2023-05-22T05:15:43.461Z,100571.41
2023-05-22T05:18:11.600Z,100560.75
2023-05-22T05:20:39.194Z,100546.50
2023-05-22T05:23:06.917Z,100551.72
2023-05-22T05:25:36.081Z,100550.78
2023-05-22T05:28:03.865Z,100540.94
2023-05-22T05:30:32.145Z,100540.81
2023-05-22T05:32:59.592Z,100524.69
2023-05-22T05:35:27.126Z,100508.59
2023-05-22T05:37:54.585Z,100496.94
2023-05-22T05:40:22.049Z,100458.63
2023-05-22T05:42:49.467Z,100459.31
2023-05-22T05:45:17.159Z,100444.97
2023-05-22T05:47:56.305Z,100414.66
2023-05-22T05:50:23.956Z,100396.63
2023-05-22T05:52:51.420Z,100375.13
2023-05-22T05:55:19.266Z,100367.81
2023-05-22T05:57:46.757Z,100380.88
2023-05-22T06:00:14.551Z,100391.66
2023-05-22T06:02:42.305Z,100403.22
2023-05-22T06:05:10.769Z,100410.97
2023-05-22T06:07:39.894Z,100403.84
2023-05-22T06:10:11.537Z,100381.53
2023-05-22T06:12:39.232Z,100373.53
2023-05-22T06:15:07.651Z,100378.00
2023-05-22T06:17:35.784Z,100371.72
2023-05-22T06:20:05.408Z,100357.13
2023-05-22T06:22:32.864Z,100340.94
2023-05-22T06:25:00.343Z,100352.56
2023-05-22T06:27:27.935Z,100366.25
2023-05-22T06:29:56.524Z,100348.22
2023-05-22T06:32:24.195Z,100350.47
2023-05-22T06:34:51.794Z,100337.75
2023-05-22T06:37:19.216Z,100327.53
2023-05-22T06:39:46.704Z,100318.22
2023-05-22T06:42:14.156Z,100320.25
2023-05-22T06:44:41.563Z,100316.00
2023-05-22T06:47:09.039Z,100295.34
2023-05-22T06:49:36.513Z,100275.75
2023-05-22T06:52:05.333Z,100261.81
2023-05-22T06:54:32.977Z,100253.91
2023-05-22T06:57:00.430Z,100242.38
2023-05-22T06:59:27.819Z,100226.81
2023-05-22T07:01:55.284Z,100228.91
2023-05-22T07:04:22.820Z,100202.34
2023-05-22T07:06:50.289Z,100208.81
2023-05-22T07:09:18.899Z,100157.19
2023-05-22T07:11:46.904Z,100154.03
2023-05-22T07:14:14.511Z,100155.56
2023-05-22T07:16:42.220Z,100134.66
2023-05-22T07:19:10.503Z,100151.41
2023-05-22T07:21:38.066Z,100126.00
2023-05-22T07:24:08.705Z,100116.97
2023-05-22T07:26:37.169Z,100119.66
2023-05-22T07:29:05.260Z,100108.56
2023-05-22T07:31:34.444Z,100113.69
2023-05-22T07:34:01.999Z,100071.78
2023-05-22T07:36:29.443Z,100089.63
2023-05-22T07:38:56.925Z,100058.41
2023-05-22T07:41:25.742Z,100064.91
2023-05-22T07:43:53.224Z,100098.50
2023-05-22T07:46:20.697Z,100061.94
2023-05-22T07:48:48.234Z,100050.03
2023-05-22T07:51:15.724Z,100059.25
2023-05-22T07:53:43.208Z,100058.91
2023-05-22T07:56:11.372Z,99993.53
2023-05-22T07:58:40.142Z,99975.94
2023-05-22T08:01:09.527Z,99978.22
2023-05-22T08:03:37.297Z,99955.22
2023-05-22T08:06:05.069Z,99964.94
2023-05-22T08:08:33.843Z,99926.28
2023-05-22T08:11:04.026Z,99934.41
2023-05-22T08:13:32.405Z,99950.50
2023-05-22T08:16:01.142Z,99906.53
2023-05-22T08:18:29.953Z,99877.41
2023-05-22T08:20:57.941Z,99923.94
2023-05-22T08:23:25.506Z,99911.47
2023-05-22T08:25:52.992Z,99905.06
2023-05-22T08:28:21.096Z,99894.75
2023-05-22T08:30:48.732Z,99915.28
2023-05-22T08:33:16.721Z,99872.44
2023-05-22T08:35:44.392Z,99882.75
2023-05-22T08:38:12.004Z,99801.47
2023-05-22T08:40:45.902Z,99825.97
2023-05-22T08:43:13.924Z,99743.38
2023-05-22T08:45:42.675Z,99766.47
2023-05-22T08:51:02.837Z,99767.28
2023-05-22T08:53:34.689Z,99822.00
2023-05-22T08:56:04.157Z,99768.06
2023-05-22T08:58:35.375Z,99732.84
2023-05-22T09:01:04.140Z,99669.38
2023-05-22T09:03:35.233Z,99717.88
2023-05-22T09:06:03.166Z,99633.94
2023-05-22T09:08:30.588Z,99685.66
2023-05-22T09:10:57.645Z,99685.13
2023-05-22T09:13:30.598Z,99664.13
2023-05-22T09:16:14.081Z,99677.78
2023-05-22T09:18:45.036Z,99628.25
2023-05-22T09:21:25.688Z,99584.06
2023-05-22T09:23:59.745Z,99575.75
2023-05-22T09:26:30.442Z,99556.00
2023-05-22T09:29:00.159Z,99569.44
2023-05-22T09:31:29.556Z,99541.69
2023-05-22T09:33:57.219Z,99571.94
2023-05-22T09:36:33.288Z,99551.38
2023-05-22T09:39:01.975Z,99510.78
2023-05-22T09:41:34.178Z,99462.06
2023-05-22T09:44:02.182Z,99461.19
2023-05-22T09:46:30.043Z,99458.84
2023-05-22T09:48:57.418Z,99423.22
2023-05-22T09:51:27.436Z,99445.22
2023-05-22T09:54:03.624Z,99530.00
2023-05-22T09:56:39.725Z,99435.59
2023-05-22T09:59:09.700Z,99488.97
2023-05-22T10:01:41.286Z,99427.03
2023-05-22T10:04:14.440Z,99483.78
2023-05-22T10:06:43.228Z,99339.38
2023-05-22T10:09:19.187Z,99324.84
2023-05-22T10:11:47.625Z,99373.56
2023-05-22T10:14:15.952Z,99369.63
2023-05-22T10:16:45.103Z,99462.41
2023-05-22T10:19:13.221Z,99335.00
2023-05-22T10:21:42.331Z,99293.81
2023-05-22T10:24:11.258Z,99309.00
2023-05-22T10:26:39.406Z,99267.53
2023-05-22T10:29:18.998Z,99265.13
2023-05-22T10:32:08.580Z,99318.41
2023-05-22T10:34:41.872Z,99140.19
2023-05-22T10:37:27.037Z,99128.78
2023-05-22T10:40:01.276Z,99204.16
2023-05-22T10:42:32.609Z,99278.53
2023-05-22T10:45:02.168Z,99099.47
2023-05-22T10:47:29.766Z,99217.06
2023-05-22T10:50:10.108Z,99131.38
2023-05-22T10:52:38.813Z,99225.09
2023-05-22T10:55:12.281Z,99154.53
2023-05-22T10:57:40.251Z,99079.25
2023-05-22T11:00:13.394Z,99063.75
2023-05-22T11:02:44.013Z,99061.00
2023-05-22T11:05:23.893Z,99079.66
2023-05-22T11:07:51.889Z,98976.22
2023-05-22T11:11:01.688Z,99091.88
2023-05-22T11:13:29.626Z,99006.38
2023-05-22T11:15:58.275Z,99083.00
2023-05-22T11:18:29.851Z,99007.69
2023-05-22T11:21:00.900Z,98985.97
2023-05-22T11:23:28.425Z,98950.69
2023-05-22T11:25:55.845Z,98929.72
2023-05-22T11:28:24.430Z,98963.72
2023-05-22T11:30:52.756Z,98998.88
2023-05-22T11:33:20.229Z,98944.38
2023-05-22T11:35:48.215Z,98948.75
2023-05-22T11:38:15.826Z,98996.75
2023-05-22T11:40:43.237Z,98863.63
2023-05-22T11:43:10.847Z,98811.75
2023-05-22T11:45:38.761Z,98824.22
2023-05-22T11:48:08.087Z,98847.44
2023-05-22T11:53:08.332Z,98639.50
2023-05-22T11:55:35.998Z,98764.84
2023-05-22T11:58:03.539Z,98752.13
2023-05-22T12:00:31.977Z,98788.22
2023-05-22T12:02:59.762Z,98683.63
2023-05-22T12:05:27.359Z,98689.22
2023-05-22T12:07:55.003Z,98704.50
2023-05-22T12:10:22.526Z,98651.22
2023-05-22T12:12:49.965Z,98635.81
2023-05-22T12:15:21.136Z,98667.56
2023-05-22T12:17:48.918Z,98642.16
2023-05-22T12:20:16.617Z,98734.75
2023-05-22T12:22:44.479Z,98524.91
2023-05-22T12:25:20.382Z,98413.91
2023-05-22T12:27:48.514Z,98380.53
2023-05-22T12:30:17.127Z,98367.66
2023-05-22T12:32:53.615Z,98406.53
2023-05-22T12:35:21.184Z,98422.47
2023-05-22T12:37:52.468Z,98362.03
2023-05-22T12:40:20.004Z,98342.88
2023-05-22T12:42:48.983Z,98384.31
2023-05-22T12:45:18.080Z,98405.34
2023-05-22T12:47:45.991Z,98353.34
2023-05-22T12:50:13.619Z,98335.31
2023-05-22T12:52:41.086Z,98282.09
2023-05-22T12:55:10.189Z,98418.06
2023-05-22T12:57:37.707Z,98456.47
2023-05-22T13:00:06.084Z,98407.34
2023-05-22T13:02:33.885Z,98514.56
2023-05-22T13:05:01.406Z,98305.38
2023-05-22T13:07:28.858Z,98387.69
2023-05-22T13:09:55.960Z,98384.16
2023-05-22T13:12:23.647Z,98312.31
2023-05-22T13:14:51.220Z,98244.91
2023-05-22T13:17:18.257Z,98247.81
2023-05-22T13:19:45.734Z,98226.00
2023-05-22T13:22:12.845Z,98328.31
2023-05-22T13:24:40.268Z,98219.84
2023-05-22T13:27:07.751Z,98267.69
2023-05-22T13:29:35.293Z,98317.94
2023-05-22T13:32:02.933Z,98366.75
2023-05-22T13:34:30.515Z,98445.09
2023-05-22T13:36:58.163Z,98545.13
2023-05-22T13:39:25.723Z,98629.75
2023-05-22T13:41:53.697Z,98667.16
2023-05-22T13:44:21.436Z,98580.94
2023-05-22T13:46:49.074Z,98575.66
2023-05-22T13:49:16.523Z,98722.16
2023-05-22T13:51:43.724Z,98825.47
2023-05-22T13:54:11.355Z,98912.22
2023-05-22T13:56:38.823Z,98923.91
2023-05-22T13:59:09.050Z,98957.66
2023-05-22T14:01:36.908Z,98986.78
2023-05-22T14:04:04.950Z,98972.09
2023-05-22T14:06:32.585Z,99031.53
2023-05-22T14:09:00.026Z,99047.13
2023-05-22T14:11:28.005Z,99128.16
2023-05-22T14:13:55.470Z,99170.16
2023-05-22T14:16:23.035Z,99243.53
2023-05-22T14:18:50.186Z,99291.13
2023-05-22T14:21:19.022Z,99310.84
2023-05-22T14:23:46.553Z,99372.97
2023-05-22T14:26:14.776Z,99412.69
2023-05-22T14:28:43.141Z,99473.38
2023-05-22T14:31:10.573Z,99465.25
2023-05-22T14:33:38.133Z,99462.28
2023-05-22T14:36:05.795Z,99488.03
2023-05-22T14:38:33.903Z,99512.56
2023-05-22T14:41:02.082Z,99539.38
2023-05-22T14:43:29.613Z,99577.97
2023-05-22T14:45:58.233Z,99600.47
2023-05-22T14:48:26.584Z,99608.25
2023-05-22T14:50:54.255Z,99604.38
2023-05-22T14:53:21.813Z,99582.94
2023-05-22T14:55:49.341Z,99588.72
2023-05-22T14:58:16.808Z,99611.66
2023-05-22T15:00:45.616Z,99634.00
2023-05-22T15:03:13.711Z,99658.16
2023-05-22T15:05:41.377Z,99692.97
2023-05-22T15:08:09.053Z,99730.44
2023-05-22T15:10:36.959Z,99743.81
2023-05-22T15:13:04.407Z,99784.47
2023-05-22T15:15:31.892Z,99804.13
2023-05-22T15:18:02.721Z,99801.94
2023-05-22T15:20:30.802Z,99817.88
2023-05-22T15:22:59.412Z,99815.91
2023-05-22T15:25:31.344Z,99831.59
2023-05-22T15:28:01.245Z,99825.34
2023-05-22T15:30:28.798Z,99817.56
2023-05-22T15:32:57.431Z,99827.38
2023-05-22T15:35:25.556Z,99826.47
2023-05-22T15:37:53.073Z,99799.75
2023-05-22T15:40:22.753Z,99767.16
2023-05-22T15:42:51.341Z,99764.59
2023-05-22T15:45:19.011Z,99780.06
2023-05-22T15:47:47.334Z,99785.16
2023-05-22T15:50:15.275Z,99796.81
2023-05-22T15:52:42.829Z,99776.00
2023-05-22T15:55:10.617Z,99769.06
2023-05-22T15:57:38.487Z,99739.13
2023-05-22T16:00:06.683Z,99745.22
2023-05-22T16:02:34.764Z,99728.03
2023-05-22T16:05:02.571Z,99743.22
2023-05-22T16:07:30.375Z,99762.41
2023-05-22T16:09:57.902Z,99757.72
2023-05-22T16:12:25.354Z,99745.34
2023-05-22T16:14:59.448Z,99749.84
2023-05-22T16:17:28.140Z,99739.44
2023-05-22T16:19:55.601Z,99767.09
2023-05-22T16:22:24.757Z,99775.47
2023-05-22T16:24:55.744Z,99784.47
2023-05-22T16:27:23.231Z,99817.72
2023-05-22T16:29:50.848Z,99816.19
2023-05-22T16:32:18.244Z,99838.06
2023-05-22T16:34:45.763Z,99840.00
2023-05-22T16:37:13.150Z,99852.50
2023-05-22T16:39:41.571Z,99867.13
2023-05-22T16:42:19.276Z,99880.97
2023-05-22T16:44:49.804Z,99916.31
2023-05-22T16:47:17.521Z,99915.41
2023-05-22T16:49:45.032Z,99933.03
2023-05-22T16:52:12.570Z,99958.94
2023-05-22T16:54:41.074Z,99976.13
2023-05-22T16:57:10.551Z,100024.84
2023-05-22T16:59:38.297Z,100072.53
2023-05-22T17:02:05.922Z,100109.19
2023-05-22T17:04:33.585Z,100101.34
2023-05-22T17:07:01.025Z,100046.41
2023-05-22T17:09:28.476Z,100039.66
2023-05-22T17:11:56.174Z,100040.06
2023-05-22T17:14:25.588Z,100053.03
2023-05-22T17:16:54.472Z,100073.75
2023-05-22T17:19:22.174Z,100078.16
2023-05-22T17:21:49.697Z,100061.47
2023-05-22T17:24:20.293Z,100061.84
2023-05-22T17:26:49.085Z,100045.03
2023-05-22T17:29:16.789Z,100035.50
2023-05-22T17:31:44.424Z,100045.88
2023-05-22T17:34:11.936Z,100048.59
2023-05-22T17:36:41.063Z,100000.44
2023-05-22T17:39:10.130Z,100031.53
2023-05-22T17:41:38.328Z,100031.41
2023-05-22T17:44:06.045Z,100043.78
2023-05-22T17:46:33.673Z,100054.81
2023-05-22T17:49:01.400Z,100031.06
2023-05-22T17:51:29.075Z,100032.25
2023-05-22T17:53:59.049Z,100041.09
2023-05-22T17:56:26.860Z,100041.00
2023-05-22T17:58:54.515Z,100061.81
2023-05-22T18:01:24.577Z,100073.59
2023-05-22T18:03:52.295Z,100095.81
2023-05-22T18:06:21.798Z,100128.34
2023-05-22T18:08:51.590Z,100161.53
2023-05-22T18:11:19.047Z,100157.91
2023-05-22T18:13:46.600Z,100208.66
2023-05-22T18:16:14.464Z,100222.50
2023-05-22T18:18:41.926Z,100219.81
2023-05-22T18:21:09.532Z,100208.66
2023-05-22T18:23:37.027Z,100122.44
2023-05-22T18:26:04.688Z,100095.75
2023-05-22T18:28:32.180Z,100089.47
2023-05-22T18:31:01.440Z,100112.28
2023-05-22T18:33:29.683Z,100144.06
2023-05-22T18:35:57.832Z,100179.09
2023-05-22T18:38:25.965Z,100198.94
2023-05-22T18:40:54.230Z,100220.50
2023-05-22T18:43:27.839Z,100241.19
2023-05-22T18:45:58.679Z,100247.09
2023-05-22T18:51:31.361Z,100254.94
2023-05-22T18:53:58.995Z,100268.78
2023-05-22T19:09:26.676Z,100315.38
2023-05-22T19:13:15.313Z,100326.28
2023-05-22T19:15:43.386Z,100333.69
2023-05-22T19:18:12.387Z,100332.06
2023-05-22T19:28:46.558Z,100352.38
2023-05-22T19:38:04.881Z,100367.13
2023-05-22T19:46:34.287Z,100377.47
2023-05-22T19:49:01.941Z,100387.56
2023-05-22T19:51:29.488Z,100397.63
2023-05-22T19:53:56.959Z,100406.50
2023-05-22T19:56:24.421Z,100409.50
2023-05-22T19:58:51.888Z,100418.22
2023-05-22T20:01:19.389Z,100448.16
2023-05-22T20:03:47.213Z,100473.03
2023-05-22T20:06:14.913Z,100492.63
2023-05-22T20:08:42.849Z,100510.47
2023-05-22T20:11:10.309Z,100522.88
2023-05-22T20:13:37.795Z,100528.44
2023-05-22T20:16:11.847Z,100541.03
2023-05-22T20:18:41.192Z,100550.94
2023-05-22T20:21:09.445Z,100567.00
2023-05-22T20:23:37.132Z,100562.47
2023-05-22T20:26:05.226Z,100568.81
2023-05-22T20:28:32.810Z,100558.03
2023-05-22T20:31:00.339Z,100549.00
2023-05-22T20:33:28.068Z,100540.59
2023-05-22T20:35:55.695Z,100514.88
2023-05-22T20:38:23.249Z,100507.72
2023-05-22T20:40:52.026Z,100496.13
2023-05-22T20:43:20.282Z,100487.28
2023-05-22T20:45:47.692Z,100482.78
2023-05-22T20:48:15.373Z,100475.72
2023-05-22T20:50:43.069Z,100480.16
2023-05-22T20:53:10.509Z,100474.75
2023-05-22T20:55:38.198Z,100473.22
2023-05-22T20:58:05.954Z,100476.00
2023-05-22T21:00:35.060Z,100489.50
2023-05-22T21:03:02.604Z,100496.72
2023-05-22T21:05:30.157Z,100514.59
2023-05-22T21:07:58.354Z,100520.81
2023-05-22T21:10:25.873Z,100523.53
2023-05-22T21:12:53.518Z,100526.28
2023-05-22T21:15:21.418Z,100533.50
2023-05-22T21:17:48.942Z,100535.38
2023-05-22T21:20:16.513Z,100537.19
2023-05-22T21:22:44.056Z,100547.88
2023-05-22T21:25:11.505Z,100549.75
2023-05-22T21:27:38.934Z,100559.47
2023-05-22T21:30:06.994Z,100564.91
2023-05-22T21:32:34.443Z,100566.75
2023-05-22T21:35:01.980Z,100570.31
2023-05-22T21:37:29.380Z,100571.25
2023-05-22T21:39:56.814Z,100581.09
2023-05-22T21:42:26.175Z,100591.75
2023-05-22T21:44:53.697Z,100597.16
2023-05-22T21:47:21.114Z,100603.34
2023-05-22T21:49:48.600Z,100592.72
2023-05-22T21:52:16.316Z,100598.81
2023-05-22T21:54:43.741Z,100590.59
2023-05-22T21:57:11.129Z,100582.53
2023-05-22T21:59:39.330Z,100571.06
2023-05-22T22:02:06.894Z,100572.63
2023-05-22T22:04:34.397Z,100559.31
2023-05-22T22:07:01.830Z,100562.06
2023-05-22T22:09:29.338Z,100562.81
2023-05-22T22:11:56.791Z,100553.88
2023-05-22T22:14:24.381Z,100538.84
2023-05-22T22:16:54.548Z,100545.16
2023-05-22T22:19:26.002Z,100544.50
2023-05-22T22:21:53.630Z,100544.63
2023-05-22T22:24:21.652Z,100547.28
2023-05-22T22:26:49.489Z,100559.00
2023-05-22T22:29:16.909Z,100555.59
2023-05-22T22:31:44.651Z,100565.44
2023-05-22T22:34:12.129Z,100565.72
2023-05-22T22:36:40.126Z,100575.44
2023-05-22T22:39:07.714Z,100586.34
2023-05-22T22:41:35.100Z,100591.75
2023-05-22T22:44:02.523Z,100599.06
2023-05-22T22:46:29.960Z,100605.31
2023-05-22T22:48:58.885Z,100617.88
2023-05-22T22:51:26.710Z,100623.41
2023-05-22T22:53:54.208Z,100639.59
2023-05-22T22:56:21.844Z,100651.91
2023-05-22T22:58:49.259Z,100652.75
2023-05-22T23:01:16.736Z,100651.03
2023-05-22T23:03:44.203Z,100648.31
2023-05-22T23:06:11.583Z,100656.34
2023-05-22T23:08:38.959Z,100658.06
2023-05-22T23:11:06.489Z,100652.78
2023-05-22T23:13:33.952Z,100653.69
2023-05-22T23:16:01.451Z,100665.16
2023-05-22T23:18:28.895Z,100646.47
2023-05-22T23:20:56.318Z,100655.31
2023-05-22T23:23:23.660Z,100649.22
2023-05-22T23:25:51.272Z,100650.13
2023-05-22T23:28:18.707Z,100656.28
2023-05-22T23:30:46.143Z,100655.38
2023-05-22T23:33:13.548Z,100643.84
2023-05-22T23:35:41.302Z,100643.84
2023-05-22T23:38:08.865Z,100629.53
2023-05-22T23:40:36.302Z,100633.06
2023-05-22T23:43:03.656Z,100631.31
2023-05-22T23:45:31.059Z,100634.94
2023-05-22T23:47:58.482Z,100634.13
2023-05-22T23:50:25.993Z,100631.41
2023-05-22T23:52:54.183Z,100627.00
2023-05-22T23:55:21.667Z,100621.56
2023-05-22T23:57:49.082Z,100620.69
